sensor_id;sensor_type;location;lat;lon;timestamp;P1;durP1;ratioP1;P2;durP2;ratioP2
65459;SDS011;52058;49.822;6.754;2023-11-21T00:00:40;3.70;;;1.73;;
65459;SDS011;52058;49.822;6.754;2023-11-21T00:03:08;2.00;;;1.48;;
65459;SDS011;52058;49.822;6.754;2023-11-21T00:05:36;3.75;;;1.60;;
65459;SDS011;52058;49.822;6.754;2023-11-21T00:08:03;2.30;;;1.90;;
65459;SDS011;52058;49.822;6.754;2023-11-21T00:10:30;2.65;;;1.50;;
65459;SDS011;52058;49.822;6.754;2023-11-21T00:12:56;3.95;;;1.50;;
65459;SDS011;52058;49.822;6.754;2023-11-21T00:15:23;4.90;;;1.70;;
65459;SDS011;52058;49.822;6.754;2023-11-21T00:17:50;1.80;;;1.60;;
65459;SDS011;52058;49.822;6.754;2023-11-21T00:20:18;4.40;;;2.65;;
65459;SDS011;52058;49.822;6.754;2023-11-21T00:22:44;2.95;;;2.10;;
65459;SDS011;52058;49.822;6.754;2023-11-21T00:25:12;1.95;;;1.42;;
65459;SDS011;52058;49.822;6.754;2023-11-21T00:27:40;2.58;;;1.90;;
65459;SDS011;52058;49.822;6.754;2023-11-21T00:30:07;3.35;;;1.85;;
65459;SDS011;52058;49.822;6.754;2023-11-21T00:32:35;1.77;;;1.52;;
65459;SDS011;52058;49.822;6.754;2023-11-21T00:35:02;2.25;;;1.80;;
65459;SDS011;52058;49.822;6.754;2023-11-21T00:37:30;3.85;;;2.13;;
65459;SDS011;52058;49.822;6.754;2023-11-21T00:39:57;4.30;;;2.08;;
65459;SDS011;52058;49.822;6.754;2023-11-21T00:42:23;3.67;;;2.28;;
65459;SDS011;52058;49.822;6.754;2023-11-21T00:44:50;5.55;;;2.40;;
65459;SDS011;52058;49.822;6.754;2023-11-21T00:47:17;4.38;;;2.70;;
65459;SDS011;52058;49.822;6.754;2023-11-21T00:49:43;4.15;;;2.50;;
65459;SDS011;52058;49.822;6.754;2023-11-21T00:52:10;4.68;;;2.55;;
65459;SDS011;52058;49.822;6.754;2023-11-21T00:54:38;7.75;;;3.05;;
65459;SDS011;52058;49.822;6.754;2023-11-21T00:57:04;4.97;;;2.55;;
65459;SDS011;52058;49.822;6.754;2023-11-21T00:59:31;4.50;;;2.88;;
65459;SDS011;52058;49.822;6.754;2023-11-21T01:01:58;4.20;;;2.20;;
65459;SDS011;52058;49.822;6.754;2023-11-21T01:04:26;3.95;;;2.67;;
65459;SDS011;52058;49.822;6.754;2023-11-21T01:06:53;4.28;;;2.38;;
65459;SDS011;52058;49.822;6.754;2023-11-21T01:09:20;4.63;;;2.38;;
65459;SDS011;52058;49.822;6.754;2023-11-21T01:11:47;3.88;;;2.40;;
65459;SDS011;52058;49.822;6.754;2023-11-21T01:14:14;4.00;;;2.08;;
65459;SDS011;52058;49.822;6.754;2023-11-21T01:16:42;3.25;;;2.25;;
65459;SDS011;52058;49.822;6.754;2023-11-21T01:19:09;3.25;;;2.13;;
65459;SDS011;52058;49.822;6.754;2023-11-21T01:21:35;3.42;;;2.28;;
65459;SDS011;52058;49.822;6.754;2023-11-21T01:24:02;3.03;;;2.20;;
65459;SDS011;52058;49.822;6.754;2023-11-21T01:26:32;5.97;;;2.25;;
65459;SDS011;52058;49.822;6.754;2023-11-21T01:29:00;3.03;;;2.15;;
65459;SDS011;52058;49.822;6.754;2023-11-21T01:31:26;3.58;;;2.40;;
65459;SDS011;52058;49.822;6.754;2023-11-21T01:33:54;2.60;;;2.00;;
65459;SDS011;52058;49.822;6.754;2023-11-21T01:36:21;3.95;;;2.30;;
65459;SDS011;52058;49.822;6.754;2023-11-21T01:38:47;3.03;;;2.10;;
65459;SDS011;52058;49.822;6.754;2023-11-21T01:41:14;3.50;;;2.17;;
65459;SDS011;52058;49.822;6.754;2023-11-21T01:43:41;2.80;;;1.75;;
65459;SDS011;52058;49.822;6.754;2023-11-21T01:46:09;4.47;;;2.40;;
65459;SDS011;52058;49.822;6.754;2023-11-21T01:48:36;4.03;;;2.35;;
65459;SDS011;52058;49.822;6.754;2023-11-21T01:51:03;4.50;;;2.70;;
65459;SDS011;52058;49.822;6.754;2023-11-21T01:53:30;3.33;;;2.65;;
65459;SDS011;52058;49.822;6.754;2023-11-21T01:55:57;3.80;;;2.63;;
65459;SDS011;52058;49.822;6.754;2023-11-21T01:58:24;6.28;;;2.97;;
65459;SDS011;52058;49.822;6.754;2023-11-21T02:00:51;3.90;;;2.83;;
65459;SDS011;52058;49.822;6.754;2023-11-21T02:03:21;4.53;;;2.90;;
65459;SDS011;52058;49.822;6.754;2023-11-21T02:05:47;4.65;;;3.03;;
65459;SDS011;52058;49.822;6.754;2023-11-21T02:08:14;3.60;;;2.70;;
65459;SDS011;52058;49.822;6.754;2023-11-21T02:10:41;3.28;;;2.60;;
65459;SDS011;52058;49.822;6.754;2023-11-21T02:13:07;3.65;;;2.55;;
65459;SDS011;52058;49.822;6.754;2023-11-21T02:15:34;3.38;;;2.80;;
65459;SDS011;52058;49.822;6.754;2023-11-21T02:18:00;4.00;;;2.70;;
65459;SDS011;52058;49.822;6.754;2023-11-21T02:20:29;3.30;;;2.92;;
65459;SDS011;52058;49.822;6.754;2023-11-21T02:22:58;4.95;;;2.63;;
65459;SDS011;52058;49.822;6.754;2023-11-21T02:25:25;3.95;;;2.88;;
65459;SDS011;52058;49.822;6.754;2023-11-21T02:27:52;3.10;;;2.58;;
65459;SDS011;52058;49.822;6.754;2023-11-21T02:30:19;3.97;;;2.65;;
65459;SDS011;52058;49.822;6.754;2023-11-21T02:32:46;6.00;;;3.97;;
65459;SDS011;52058;49.822;6.754;2023-11-21T02:35:13;4.72;;;3.13;;
65459;SDS011;52058;49.822;6.754;2023-11-21T02:37:40;4.43;;;3.47;;
65459;SDS011;52058;49.822;6.754;2023-11-21T02:40:10;6.45;;;3.13;;
65459;SDS011;52058;49.822;6.754;2023-11-21T02:42:38;6.05;;;3.10;;
65459;SDS011;52058;49.822;6.754;2023-11-21T02:45:06;7.47;;;3.50;;
65459;SDS011;52058;49.822;6.754;2023-11-21T02:47:33;4.70;;;3.15;;
65459;SDS011;52058;49.822;6.754;2023-11-21T02:49:59;5.95;;;3.35;;
65459;SDS011;52058;49.822;6.754;2023-11-21T02:52:26;3.63;;;2.78;;
65459;SDS011;52058;49.822;6.754;2023-11-21T02:54:53;4.10;;;2.65;;
65459;SDS011;52058;49.822;6.754;2023-11-21T02:57:21;3.53;;;2.22;;
65459;SDS011;52058;49.822;6.754;2023-11-21T02:59:47;3.97;;;2.50;;
65459;SDS011;52058;49.822;6.754;2023-11-21T03:02:14;2.85;;;2.15;;
65459;SDS011;52058;49.822;6.754;2023-11-21T03:04:41;3.15;;;2.13;;
65459;SDS011;52058;49.822;6.754;2023-11-21T03:07:08;2.88;;;2.22;;
65459;SDS011;52058;49.822;6.754;2023-11-21T03:09:35;2.10;;;1.90;;
65459;SDS011;52058;49.822;6.754;2023-11-21T03:12:02;4.00;;;2.05;;
65459;SDS011;52058;49.822;6.754;2023-11-21T03:14:30;2.38;;;1.70;;
65459;SDS011;52058;49.822;6.754;2023-11-21T03:16:57;2.20;;;1.63;;
65459;SDS011;52058;49.822;6.754;2023-11-21T03:19:23;2.13;;;1.83;;
65459;SDS011;52058;49.822;6.754;2023-11-21T03:21:50;3.50;;;1.85;;
65459;SDS011;52058;49.822;6.754;2023-11-21T03:24:18;2.20;;;1.67;;
65459;SDS011;52058;49.822;6.754;2023-11-21T03:26:45;2.70;;;1.83;;
65459;SDS011;52058;49.822;6.754;2023-11-21T03:29:11;2.30;;;1.40;;
65459;SDS011;52058;49.822;6.754;2023-11-21T03:31:39;1.83;;;1.55;;
65459;SDS011;52058;49.822;6.754;2023-11-21T03:34:06;1.92;;;1.50;;
65459;SDS011;52058;49.822;6.754;2023-11-21T03:36:35;1.95;;;1.60;;
65459;SDS011;52058;49.822;6.754;2023-11-21T03:39:03;1.80;;;1.60;;
65459;SDS011;52058;49.822;6.754;2023-11-21T03:41:30;3.75;;;1.67;;
65459;SDS011;52058;49.822;6.754;2023-11-21T03:43:56;1.77;;;1.50;;
65459;SDS011;52058;49.822;6.754;2023-11-21T03:46:23;2.25;;;1.77;;
65459;SDS011;52058;49.822;6.754;2023-11-21T03:48:52;3.85;;;1.73;;
65459;SDS011;52058;49.822;6.754;2023-11-21T03:51:20;1.92;;;1.50;;
65459;SDS011;52058;49.822;6.754;2023-11-21T03:53:47;1.73;;;1.45;;
65459;SDS011;52058;49.822;6.754;2023-11-21T03:56:14;2.28;;;1.48;;
65459;SDS011;52058;49.822;6.754;2023-11-21T03:58:40;1.95;;;1.70;;
65459;SDS011;52058;49.822;6.754;2023-11-21T04:01:08;1.90;;;1.65;;
65459;SDS011;52058;49.822;6.754;2023-11-21T04:03:35;1.58;;;1.40;;
65459;SDS011;52058;49.822;6.754;2023-11-21T04:06:03;2.17;;;1.60;;
65459;SDS011;52058;49.822;6.754;2023-11-21T04:08:31;1.77;;;1.58;;
65459;SDS011;52058;49.822;6.754;2023-11-21T04:10:59;2.08;;;1.65;;
65459;SDS011;52058;49.822;6.754;2023-11-21T04:13:26;2.40;;;1.90;;
65459;SDS011;52058;49.822;6.754;2023-11-21T04:15:53;4.20;;;2.20;;
65459;SDS011;52058;49.822;6.754;2023-11-21T04:18:19;2.67;;;1.80;;
65459;SDS011;52058;49.822;6.754;2023-11-21T04:20:46;2.38;;;1.52;;
65459;SDS011;52058;49.822;6.754;2023-11-21T04:23:14;2.75;;;1.55;;
65459;SDS011;52058;49.822;6.754;2023-11-21T04:25:40;2.95;;;1.98;;
65459;SDS011;52058;49.822;6.754;2023-11-21T04:28:07;2.33;;;1.80;;
65459;SDS011;52058;49.822;6.754;2023-11-21T04:30:34;2.30;;;1.95;;
65459;SDS011;52058;49.822;6.754;2023-11-21T04:33:00;3.85;;;2.70;;
65459;SDS011;52058;49.822;6.754;2023-11-21T04:35:28;2.20;;;1.65;;
65459;SDS011;52058;49.822;6.754;2023-11-21T04:37:54;3.67;;;2.20;;
65459;SDS011;52058;49.822;6.754;2023-11-21T04:40:23;2.80;;;2.13;;
65459;SDS011;52058;49.822;6.754;2023-11-21T04:42:52;3.05;;;2.05;;
65459;SDS011;52058;49.822;6.754;2023-11-21T04:45:18;2.50;;;1.90;;
65459;SDS011;52058;49.822;6.754;2023-11-21T04:47:45;2.35;;;2.15;;
65459;SDS011;52058;49.822;6.754;2023-11-21T04:50:11;2.90;;;2.00;;
65459;SDS011;52058;49.822;6.754;2023-11-21T04:52:38;4.88;;;2.25;;
65459;SDS011;52058;49.822;6.754;2023-11-21T04:55:05;3.92;;;2.42;;
65459;SDS011;52058;49.822;6.754;2023-11-21T04:57:36;4.90;;;2.47;;
65459;SDS011;52058;49.822;6.754;2023-11-21T05:00:03;3.92;;;2.45;;
65459;SDS011;52058;49.822;6.754;2023-11-21T05:02:31;3.25;;;2.50;;
65459;SDS011;52058;49.822;6.754;2023-11-21T05:04:56;3.50;;;2.78;;
65459;SDS011;52058;49.822;6.754;2023-11-21T05:07:23;5.90;;;2.88;;
65459;SDS011;52058;49.822;6.754;2023-11-21T05:09:53;3.75;;;2.63;;
65459;SDS011;52058;49.822;6.754;2023-11-21T05:12:21;4.60;;;3.13;;
65459;SDS011;52058;49.822;6.754;2023-11-21T05:14:49;4.50;;;3.03;;
65459;SDS011;52058;49.822;6.754;2023-11-21T05:17:16;4.15;;;2.92;;
65459;SDS011;52058;49.822;6.754;2023-11-21T05:19:43;5.88;;;3.15;;
65459;SDS011;52058;49.822;6.754;2023-11-21T05:22:10;4.68;;;3.55;;
65459;SDS011;52058;49.822;6.754;2023-11-21T05:24:37;4.15;;;2.97;;
65459;SDS011;52058;49.822;6.754;2023-11-21T05:27:04;4.38;;;2.92;;
65459;SDS011;52058;49.822;6.754;2023-11-21T05:29:31;6.30;;;2.90;;
65459;SDS011;52058;49.822;6.754;2023-11-21T05:31:59;4.47;;;2.95;;
65459;SDS011;52058;49.822;6.754;2023-11-21T05:34:25;5.47;;;3.20;;
65459;SDS011;52058;49.822;6.754;2023-11-21T05:36:52;4.90;;;3.35;;
65459;SDS011;52058;49.822;6.754;2023-11-21T05:39:18;5.47;;;3.20;;
65459;SDS011;52058;49.822;6.754;2023-11-21T05:41:46;4.38;;;3.05;;
65459;SDS011;52058;49.822;6.754;2023-11-21T05:44:12;4.40;;;2.92;;
65459;SDS011;52058;49.822;6.754;2023-11-21T05:46:40;4.65;;;2.90;;
65459;SDS011;52058;49.822;6.754;2023-11-21T05:49:09;4.55;;;2.58;;
65459;SDS011;52058;49.822;6.754;2023-11-21T05:51:36;4.43;;;3.13;;
65459;SDS011;52058;49.822;6.754;2023-11-21T05:54:03;4.35;;;3.45;;
65459;SDS011;52058;49.822;6.754;2023-11-21T05:56:30;6.10;;;3.45;;
65459;SDS011;52058;49.822;6.754;2023-11-21T05:58:56;5.88;;;3.28;;
65459;SDS011;52058;49.822;6.754;2023-11-21T06:01:23;5.43;;;3.15;;
65459;SDS011;52058;49.822;6.754;2023-11-21T06:03:50;6.25;;;3.45;;
65459;SDS011;52058;49.822;6.754;2023-11-21T06:06:18;6.07;;;3.90;;
65459;SDS011;52058;49.822;6.754;2023-11-21T06:08:44;6.22;;;3.70;;
65459;SDS011;52058;49.822;6.754;2023-11-21T06:11:11;5.60;;;3.75;;
65459;SDS011;52058;49.822;6.754;2023-11-21T06:13:37;9.00;;;4.13;;
65459;SDS011;52058;49.822;6.754;2023-11-21T06:16:04;8.23;;;4.07;;
65459;SDS011;52058;49.822;6.754;2023-11-21T06:18:31;9.07;;;4.32;;
65459;SDS011;52058;49.822;6.754;2023-11-21T06:20:58;6.72;;;4.30;;
65459;SDS011;52058;49.822;6.754;2023-11-21T06:23:27;7.63;;;4.03;;
65459;SDS011;52058;49.822;6.754;2023-11-21T06:25:53;7.43;;;4.22;;
65459;SDS011;52058;49.822;6.754;2023-11-21T06:28:20;7.45;;;4.20;;
65459;SDS011;52058;49.822;6.754;2023-11-21T06:30:46;7.13;;;4.47;;
65459;SDS011;52058;49.822;6.754;2023-11-21T06:33:14;7.40;;;4.47;;
65459;SDS011;52058;49.822;6.754;2023-11-21T06:35:41;5.88;;;4.20;;
65459;SDS011;52058;49.822;6.754;2023-11-21T06:38:07;8.50;;;5.20;;
65459;SDS011;52058;49.822;6.754;2023-11-21T06:40:36;7.95;;;4.57;;
65459;SDS011;52058;49.822;6.754;2023-11-21T06:43:02;7.88;;;4.50;;
65459;SDS011;52058;49.822;6.754;2023-11-21T06:45:30;7.30;;;4.45;;
65459;SDS011;52058;49.822;6.754;2023-11-21T06:47:56;6.75;;;4.00;;
65459;SDS011;52058;49.822;6.754;2023-11-21T06:50:23;8.80;;;4.40;;
65459;SDS011;52058;49.822;6.754;2023-11-21T06:52:49;8.57;;;4.10;;
65459;SDS011;52058;49.822;6.754;2023-11-21T06:55:16;8.88;;;4.13;;
65459;SDS011;52058;49.822;6.754;2023-11-21T06:57:44;7.10;;;4.15;;
65459;SDS011;52058;49.822;6.754;2023-11-21T07:00:12;8.10;;;4.43;;
65459;SDS011;52058;49.822;6.754;2023-11-21T07:02:42;8.60;;;4.60;;
65459;SDS011;52058;49.822;6.754;2023-11-21T07:05:09;11.48;;;4.32;;
65459;SDS011;52058;49.822;6.754;2023-11-21T07:07:36;10.35;;;4.45;;
65459;SDS011;52058;49.822;6.754;2023-11-21T07:10:02;8.05;;;3.95;;
65459;SDS011;52058;49.822;6.754;2023-11-21T07:12:31;7.22;;;4.30;;
65459;SDS011;52058;49.822;6.754;2023-11-21T07:14:59;6.35;;;3.92;;
65459;SDS011;52058;49.822;6.754;2023-11-21T07:17:25;9.10;;;3.88;;
65459;SDS011;52058;49.822;6.754;2023-11-21T07:19:52;8.98;;;4.35;;
65459;SDS011;52058;49.822;6.754;2023-11-21T07:22:20;8.02;;;4.80;;
65459;SDS011;52058;49.822;6.754;2023-11-21T07:24:47;10.27;;;4.78;;
65459;SDS011;52058;49.822;6.754;2023-11-21T07:27:15;8.82;;;5.20;;
65459;SDS011;52058;49.822;6.754;2023-11-21T07:29:41;9.65;;;4.70;;
65459;SDS011;52058;49.822;6.754;2023-11-21T07:32:09;6.47;;;4.25;;
65459;SDS011;52058;49.822;6.754;2023-11-21T07:34:36;7.28;;;4.45;;
65459;SDS011;52058;49.822;6.754;2023-11-21T07:37:02;13.65;;;6.18;;
65459;SDS011;52058;49.822;6.754;2023-11-21T07:39:29;10.80;;;5.25;;
65459;SDS011;52058;49.822;6.754;2023-11-21T07:41:56;10.43;;;5.90;;
65459;SDS011;52058;49.822;6.754;2023-11-21T07:44:23;11.90;;;5.90;;
65459;SDS011;52058;49.822;6.754;2023-11-21T07:46:49;9.13;;;4.78;;
65459;SDS011;52058;49.822;6.754;2023-11-21T07:49:17;10.35;;;5.65;;
65459;SDS011;52058;49.822;6.754;2023-11-21T07:51:46;12.25;;;7.50;;
65459;SDS011;52058;49.822;6.754;2023-11-21T07:54:12;14.43;;;7.10;;
65459;SDS011;52058;49.822;6.754;2023-11-21T07:56:39;15.07;;;6.35;;
65459;SDS011;52058;49.822;6.754;2023-11-21T07:59:06;8.75;;;4.20;;
65459;SDS011;52058;49.822;6.754;2023-11-21T08:01:32;6.13;;;3.55;;
65459;SDS011;52058;49.822;6.754;2023-11-21T08:03:59;7.05;;;3.83;;
65459;SDS011;52058;49.822;6.754;2023-11-21T08:06:29;7.18;;;4.47;;
65459;SDS011;52058;49.822;6.754;2023-11-21T08:08:57;6.47;;;4.03;;
65459;SDS011;52058;49.822;6.754;2023-11-21T08:11:24;8.70;;;4.00;;
65459;SDS011;52058;49.822;6.754;2023-11-21T08:13:54;5.97;;;4.03;;
65459;SDS011;52058;49.822;6.754;2023-11-21T08:16:20;8.45;;;4.65;;
65459;SDS011;52058;49.822;6.754;2023-11-21T08:18:49;6.22;;;3.70;;
65459;SDS011;52058;49.822;6.754;2023-11-21T08:21:16;7.25;;;3.60;;
65459;SDS011;52058;49.822;6.754;2023-11-21T08:23:43;7.00;;;4.20;;
65459;SDS011;52058;49.822;6.754;2023-11-21T08:26:10;5.40;;;4.10;;
65459;SDS011;52058;49.822;6.754;2023-11-21T08:28:37;7.47;;;4.10;;
65459;SDS011;52058;49.822;6.754;2023-11-21T08:31:03;8.60;;;4.80;;
65459;SDS011;52058;49.822;6.754;2023-11-21T08:33:33;8.68;;;4.53;;
65459;SDS011;52058;49.822;6.754;2023-11-21T08:35:59;8.68;;;5.45;;
65459;SDS011;52058;49.822;6.754;2023-11-21T08:38:26;8.73;;;5.63;;
65459;SDS011;52058;49.822;6.754;2023-11-21T08:40:55;10.80;;;5.97;;
65459;SDS011;52058;49.822;6.754;2023-11-21T08:43:22;10.75;;;5.57;;
65459;SDS011;52058;49.822;6.754;2023-11-21T08:45:49;10.35;;;5.60;;
65459;SDS011;52058;49.822;6.754;2023-11-21T08:48:15;11.20;;;6.50;;
65459;SDS011;52058;49.822;6.754;2023-11-21T08:50:42;9.90;;;5.78;;
65459;SDS011;52058;49.822;6.754;2023-11-21T08:53:09;9.38;;;5.45;;
65459;SDS011;52058;49.822;6.754;2023-11-21T08:55:36;11.77;;;6.00;;
65459;SDS011;52058;49.822;6.754;2023-11-21T08:58:04;9.30;;;5.95;;
65459;SDS011;52058;49.822;6.754;2023-11-21T09:00:32;9.43;;;5.00;;
65459;SDS011;52058;49.822;6.754;2023-11-21T09:02:58;7.97;;;5.30;;
65459;SDS011;52058;49.822;6.754;2023-11-21T09:05:25;7.78;;;5.15;;
65459;SDS011;52058;49.822;6.754;2023-11-21T09:07:51;7.07;;;4.55;;
65459;SDS011;52058;49.822;6.754;2023-11-21T09:10:18;8.90;;;5.38;;
65459;SDS011;52058;49.822;6.754;2023-11-21T09:12:45;10.45;;;5.32;;
65459;SDS011;52058;49.822;6.754;2023-11-21T09:15:13;11.40;;;6.32;;
65459;SDS011;52058;49.822;6.754;2023-11-21T09:17:40;10.32;;;6.35;;
65459;SDS011;52058;49.822;6.754;2023-11-21T09:20:07;7.53;;;5.32;;
65459;SDS011;52058;49.822;6.754;2023-11-21T09:22:35;8.25;;;4.88;;
65459;SDS011;52058;49.822;6.754;2023-11-21T09:25:01;9.32;;;5.30;;
65459;SDS011;52058;49.822;6.754;2023-11-21T09:27:30;8.52;;;5.43;;
65459;SDS011;52058;49.822;6.754;2023-11-21T09:29:56;8.93;;;5.30;;
65459;SDS011;52058;49.822;6.754;2023-11-21T09:32:24;8.43;;;5.22;;
65459;SDS011;52058;49.822;6.754;2023-11-21T09:34:51;10.82;;;7.03;;
65459;SDS011;52058;49.822;6.754;2023-11-21T09:37:20;8.10;;;5.03;;
65459;SDS011;52058;49.822;6.754;2023-11-21T09:39:47;8.27;;;5.20;;
65459;SDS011;52058;49.822;6.754;2023-11-21T09:42:15;8.27;;;5.60;;
65459;SDS011;52058;49.822;6.754;2023-11-21T09:44:48;12.95;;;6.45;;
65459;SDS011;52058;49.822;6.754;2023-11-21T09:47:21;10.88;;;6.22;;
65459;SDS011;52058;49.822;6.754;2023-11-21T09:49:50;9.57;;;5.38;;
65459;SDS011;52058;49.822;6.754;2023-11-21T09:52:22;9.10;;;5.28;;
65459;SDS011;52058;49.822;6.754;2023-11-21T09:54:51;8.68;;;6.10;;
65459;SDS011;52058;49.822;6.754;2023-11-21T09:57:19;8.73;;;4.72;;
65459;SDS011;52058;49.822;6.754;2023-11-21T09:59:48;6.43;;;4.40;;
65459;SDS011;52058;49.822;6.754;2023-11-21T10:02:17;8.20;;;5.00;;
65459;SDS011;52058;49.822;6.754;2023-11-21T10:04:46;9.50;;;4.65;;
65459;SDS011;52058;49.822;6.754;2023-11-21T10:07:14;7.47;;;4.72;;
65459;SDS011;52058;49.822;6.754;2023-11-21T10:09:45;8.52;;;5.57;;
65459;SDS011;52058;49.822;6.754;2023-11-21T10:12:13;6.45;;;4.75;;
65459;SDS011;52058;49.822;6.754;2023-11-21T10:14:42;7.75;;;4.85;;
65459;SDS011;52058;49.822;6.754;2023-11-21T10:17:10;7.20;;;4.68;;
65459;SDS011;52058;49.822;6.754;2023-11-21T10:19:38;8.82;;;5.45;;
65459;SDS011;52058;49.822;6.754;2023-11-21T10:22:05;9.50;;;5.25;;
65459;SDS011;52058;49.822;6.754;2023-11-21T10:24:35;7.35;;;5.07;;
65459;SDS011;52058;49.822;6.754;2023-11-21T10:27:03;7.20;;;4.95;;
65459;SDS011;52058;49.822;6.754;2023-11-21T10:29:30;9.13;;;5.45;;
65459;SDS011;52058;49.822;6.754;2023-11-21T10:32:01;7.53;;;5.22;;
65459;SDS011;52058;49.822;6.754;2023-11-21T10:34:28;8.18;;;5.05;;
65459;SDS011;52058;49.822;6.754;2023-11-21T10:36:55;8.60;;;5.65;;
65459;SDS011;52058;49.822;6.754;2023-11-21T10:39:23;8.77;;;5.80;;
65459;SDS011;52058;49.822;6.754;2023-11-21T10:41:54;7.43;;;4.80;;
65459;SDS011;52058;49.822;6.754;2023-11-21T10:44:21;8.15;;;5.40;;
65459;SDS011;52058;49.822;6.754;2023-11-21T10:46:49;7.35;;;4.60;;
65459;SDS011;52058;49.822;6.754;2023-11-21T10:49:16;9.20;;;4.85;;
65459;SDS011;52058;49.822;6.754;2023-11-21T10:51:44;8.80;;;5.30;;
65459;SDS011;52058;49.822;6.754;2023-11-21T10:54:10;7.78;;;4.70;;
65459;SDS011;52058;49.822;6.754;2023-11-21T10:56:39;6.68;;;4.57;;
65459;SDS011;52058;49.822;6.754;2023-11-21T10:59:10;8.10;;;4.18;;
65459;SDS011;52058;49.822;6.754;2023-11-21T11:01:39;7.38;;;5.07;;
65459;SDS011;52058;49.822;6.754;2023-11-21T11:04:08;9.07;;;4.78;;
65459;SDS011;52058;49.822;6.754;2023-11-21T11:06:40;7.82;;;4.65;;
65459;SDS011;52058;49.822;6.754;2023-11-21T11:09:07;8.32;;;5.25;;
65459;SDS011;52058;49.822;6.754;2023-11-21T11:11:38;13.40;;;5.28;;
65459;SDS011;52058;49.822;6.754;2023-11-21T11:14:06;9.05;;;4.78;;
65459;SDS011;52058;49.822;6.754;2023-11-21T11:16:34;7.72;;;5.10;;
65459;SDS011;52058;49.822;6.754;2023-11-21T11:19:04;11.18;;;5.70;;
65459;SDS011;52058;49.822;6.754;2023-11-21T11:21:33;12.20;;;5.43;;
65459;SDS011;52058;49.822;6.754;2023-11-21T11:24:22;9.52;;;4.70;;
65459;SDS011;52058;49.822;6.754;2023-11-21T11:27:01;8.63;;;4.93;;
65459;SDS011;52058;49.822;6.754;2023-11-21T11:29:40;6.90;;;4.70;;
65459;SDS011;52058;49.822;6.754;2023-11-21T11:32:21;9.38;;;5.07;;
65459;SDS011;52058;49.822;6.754;2023-11-21T11:34:56;6.63;;;4.30;;
65459;SDS011;52058;49.822;6.754;2023-11-21T11:37:27;10.02;;;5.05;;
65459;SDS011;52058;49.822;6.754;2023-11-21T11:39:54;6.82;;;4.30;;
65459;SDS011;52058;49.822;6.754;2023-11-21T11:42:22;7.00;;;4.50;;
65459;SDS011;52058;49.822;6.754;2023-11-21T11:44:49;7.00;;;4.32;;
65459;SDS011;52058;49.822;6.754;2023-11-21T11:47:21;6.95;;;4.15;;
65459;SDS011;52058;49.822;6.754;2023-11-21T11:50:05;7.00;;;4.65;;
65459;SDS011;52058;49.822;6.754;2023-11-21T11:52:37;7.35;;;3.95;;
65459;SDS011;52058;49.822;6.754;2023-11-21T11:55:06;6.88;;;4.10;;
65459;SDS011;52058;49.822;6.754;2023-11-21T11:57:35;7.30;;;3.72;;
65459;SDS011;52058;49.822;6.754;2023-11-21T12:00:13;6.20;;;3.90;;
65459;SDS011;52058;49.822;6.754;2023-11-21T12:02:52;5.78;;;4.15;;
65459;SDS011;52058;49.822;6.754;2023-11-21T12:05:19;7.43;;;3.83;;
65459;SDS011;52058;49.822;6.754;2023-11-21T12:07:49;6.13;;;3.58;;
65459;SDS011;52058;49.822;6.754;2023-11-21T12:10:18;7.00;;;3.75;;
65459;SDS011;52058;49.822;6.754;2023-11-21T12:12:46;7.03;;;4.00;;
65459;SDS011;52058;49.822;6.754;2023-11-21T12:15:14;7.93;;;3.83;;
65459;SDS011;52058;49.822;6.754;2023-11-21T12:17:41;7.10;;;3.63;;
65459;SDS011;52058;49.822;6.754;2023-11-21T12:20:10;7.30;;;3.67;;
65459;SDS011;52058;49.822;6.754;2023-11-21T12:22:42;7.72;;;4.07;;
65459;SDS011;52058;49.822;6.754;2023-11-21T12:25:10;5.60;;;3.42;;
65459;SDS011;52058;49.822;6.754;2023-11-21T12:27:41;8.43;;;4.00;;
65459;SDS011;52058;49.822;6.754;2023-11-21T12:30:11;5.53;;;3.35;;
65459;SDS011;52058;49.822;6.754;2023-11-21T12:32:40;10.40;;;4.35;;
65459;SDS011;52058;49.822;6.754;2023-11-21T12:35:08;6.07;;;3.22;;
65459;SDS011;52058;49.822;6.754;2023-11-21T12:37:36;4.68;;;3.20;;
65459;SDS011;52058;49.822;6.754;2023-11-21T12:40:04;6.20;;;3.65;;
65459;SDS011;52058;49.822;6.754;2023-11-21T12:42:32;5.97;;;3.92;;
65459;SDS011;52058;49.822;6.754;2023-11-21T12:45:07;5.20;;;3.78;;
65459;SDS011;52058;49.822;6.754;2023-11-21T12:47:45;6.72;;;4.30;;
65459;SDS011;52058;49.822;6.754;2023-11-21T12:50:14;4.43;;;3.17;;
65459;SDS011;52058;49.822;6.754;2023-11-21T12:52:44;5.80;;;3.72;;
65459;SDS011;52058;49.822;6.754;2023-11-21T12:55:15;5.88;;;3.38;;
65459;SDS011;52058;49.822;6.754;2023-11-21T12:57:43;5.35;;;4.00;;
65459;SDS011;52058;49.822;6.754;2023-11-21T13:00:11;7.45;;;3.40;;
65459;SDS011;52058;49.822;6.754;2023-11-21T13:02:51;5.93;;;3.35;;
65459;SDS011;52058;49.822;6.754;2023-11-21T13:05:24;6.15;;;3.85;;
65459;SDS011;52058;49.822;6.754;2023-11-21T13:07:53;7.38;;;3.90;;
65459;SDS011;52058;49.822;6.754;2023-11-21T13:10:21;5.93;;;3.88;;
65459;SDS011;52058;49.822;6.754;2023-11-21T13:12:51;6.80;;;3.97;;
65459;SDS011;52058;49.822;6.754;2023-11-21T13:15:18;5.93;;;3.97;;
65459;SDS011;52058;49.822;6.754;2023-11-21T13:17:45;5.07;;;3.20;;
65459;SDS011;52058;49.822;6.754;2023-11-21T13:20:12;5.63;;;3.33;;
65459;SDS011;52058;49.822;6.754;2023-11-21T13:22:46;5.68;;;3.30;;
65459;SDS011;52058;49.822;6.754;2023-11-21T13:25:14;5.20;;;3.40;;
65459;SDS011;52058;49.822;6.754;2023-11-21T13:27:42;4.82;;;3.28;;
65459;SDS011;52058;49.822;6.754;2023-11-21T13:30:11;5.15;;;3.13;;
65459;SDS011;52058;49.822;6.754;2023-11-21T13:32:40;3.92;;;2.63;;
65459;SDS011;52058;49.822;6.754;2023-11-21T13:35:07;3.88;;;2.58;;
65459;SDS011;52058;49.822;6.754;2023-11-21T13:37:40;2.65;;;2.20;;
65459;SDS011;52058;49.822;6.754;2023-11-21T13:40:09;3.20;;;2.20;;
65459;SDS011;52058;49.822;6.754;2023-11-21T13:42:39;3.55;;;1.80;;
65459;SDS011;52058;49.822;6.754;2023-11-21T13:45:07;4.18;;;1.90;;
65459;SDS011;52058;49.822;6.754;2023-11-21T13:47:34;1.92;;;1.58;;
65459;SDS011;52058;49.822;6.754;2023-11-21T13:50:03;2.50;;;1.73;;
65459;SDS011;52058;49.822;6.754;2023-11-21T13:52:33;3.70;;;1.90;;
65459;SDS011;52058;49.822;6.754;2023-11-21T13:55:01;3.40;;;2.05;;
65459;SDS011;52058;49.822;6.754;2023-11-21T13:57:33;4.32;;;2.08;;
65459;SDS011;52058;49.822;6.754;2023-11-21T13:59:59;3.15;;;1.90;;
65459;SDS011;52058;49.822;6.754;2023-11-21T14:02:26;3.15;;;1.90;;
65459;SDS011;52058;49.822;6.754;2023-11-21T14:04:57;2.72;;;2.10;;
65459;SDS011;52058;49.822;6.754;2023-11-21T14:07:26;2.95;;;1.90;;
65459;SDS011;52058;49.822;6.754;2023-11-21T14:09:57;5.17;;;2.30;;
65459;SDS011;52058;49.822;6.754;2023-11-21T14:12:25;2.65;;;1.80;;
65459;SDS011;52058;49.822;6.754;2023-11-21T14:14:53;4.80;;;2.03;;
65459;SDS011;52058;49.822;6.754;2023-11-21T14:17:20;2.00;;;1.80;;
65459;SDS011;52058;49.822;6.754;2023-11-21T14:19:47;4.95;;;2.10;;
65459;SDS011;52058;49.822;6.754;2023-11-21T14:22:15;4.53;;;2.40;;
65459;SDS011;52058;49.822;6.754;2023-11-21T14:24:42;3.88;;;2.28;;
65459;SDS011;52058;49.822;6.754;2023-11-21T14:27:12;3.80;;;2.88;;
65459;SDS011;52058;49.822;6.754;2023-11-21T14:29:39;5.72;;;4.10;;
65459;SDS011;52058;49.822;6.754;2023-11-21T14:32:10;6.22;;;4.00;;
65459;SDS011;52058;49.822;6.754;2023-11-21T14:34:38;7.88;;;5.43;;
65459;SDS011;52058;49.822;6.754;2023-11-21T14:37:05;5.32;;;3.47;;
65459;SDS011;52058;49.822;6.754;2023-11-21T14:39:32;5.00;;;2.90;;
65459;SDS011;52058;49.822;6.754;2023-11-21T14:42:03;5.70;;;3.45;;
65459;SDS011;52058;49.822;6.754;2023-11-21T14:44:32;12.32;;;4.55;;
65459;SDS011;52058;49.822;6.754;2023-11-21T14:47:03;6.25;;;3.80;;
65459;SDS011;52058;49.822;6.754;2023-11-21T14:49:36;4.05;;;2.97;;